Time;durP1;ratioP1;P1;durP2;ratioP2;P2;SDS_P1;SDS_P2;PMS_P1;PMS_P2;Temp;Humidity;BMP_temperature;BMP_pressure;BME280_temperature;BME280_humidity;BME280_pressure;Samples;Min_cycle;Max_cycle;Signal;HPM_P1;HPM_P2
2023/04/20 00:01:57;;;;;;;1.20;1.10;;;;;;;10.24;39.25;102272.28;6137917;28;20253;-73
2023/04/20 00:05:18;;;;;;;1.87;1.17;;;;;;;10.23;39.13;102270.59;6148550;28;20776;-73
2023/04/20 00:08:39;;;;;;;1.07;0.97;;;;;;;10.19;39.26;102263.06;6153629;28;20218;-73
2023/04/20 00:12:02;;;;;;;3.23;2.10;;;;;;;10.20;39.31;102273.50;6129962;28;20238;-72
2023/04/20 00:15:23;;;;;;;3.57;1.37;;;;;;;10.14;39.33;102278.44;6157134;28;20667;-72
2023/04/20 00:18:45;;;;;;;2.40;1.30;;;;;;;10.08;40.00;102266.59;6149399;28;20234;-73
2023/04/20 00:22:06;;;;;;;2.83;1.27;;;;;;;10.18;39.71;102269.28;6144258;28;20233;-72
2023/04/20 00:25:27;;;;;;;3.20;1.60;;;;;;;10.21;41.01;102263.78;6161887;28;20245;-72
2023/04/20 00:28:50;;;;;;;2.40;1.50;;;;;;;10.11;41.69;102271.63;6152216;28;20238;-73
2023/04/20 00:32:11;;;;;;;1.13;1.13;;;;;;;9.89;44.71;102277.88;6143787;28;20238;-74
2023/04/20 00:35:32;;;;;;;0.97;0.87;;;;;;;9.85;46.03;102279.09;6153567;28;20243;-73
2023/04/20 00:38:53;;;;;;;1.83;1.20;;;;;;;9.83;46.44;102274.91;6147819;28;20238;-74
2023/04/20 00:42:15;;;;;;;1.33;1.10;;;;;;;9.78;46.60;102271.81;6148643;28;20547;-73
2023/04/20 00:45:37;;;;;;;2.70;1.83;;;;;;;9.83;46.33;102270.47;6145574;28;20226;-73
2023/04/20 00:48:59;;;;;;;2.87;1.80;;;;;;;9.74;46.57;102258.06;6147221;28;20226;-72
2023/04/20 00:52:21;;;;;;;5.43;2.13;;;;;;;9.65;48.66;102250.09;6153495;28;20240;-74
2023/04/20 00:55:43;;;;;;;1.80;1.20;;;;;;;9.74;48.50;102221.13;6150833;28;20542;-73
2023/04/20 00:59:08;;;;;;;1.53;1.33;;;;;;;9.67;49.08;102234.97;6147833;28;20614;-75
2023/04/20 01:02:31;;;;;;;1.83;1.73;;;;;;;9.67;49.72;102243.72;6164072;28;20214;-74
2023/04/20 01:05:52;;;;;;;2.83;1.80;;;;;;;9.57;50.17;102225.19;6147248;28;20656;-75
2023/04/20 01:09:15;;;;;;;1.40;1.30;;;;;;;9.63;48.87;102210.69;6145830;28;20230;-75
2023/04/20 01:12:36;;;;;;;2.10;1.90;;;;;;;9.70;49.56;102217.13;6129423;28;20781;-76
2023/04/20 01:15:58;;;;;;;2.57;1.93;;;;;;;9.64;49.27;102228.16;6154454;28;20238;-74
2023/04/20 01:19:21;;;;;;;1.70;1.60;;;;;;;9.68;49.13;102211.13;6149705;28;20254;-77
2023/04/20 01:22:45;;;;;;;1.73;1.30;;;;;;;9.67;48.51;102212.09;6150622;28;20674;-75
2023/04/20 01:26:07;;;;;;;1.20;1.03;;;;;;;9.64;49.09;102214.16;6141280;28;20635;-74
2023/04/20 01:29:28;;;;;;;3.47;2.00;;;;;;;9.68;48.32;102215.56;6152456;28;20234;-75
2023/04/20 01:32:49;;;;;;;2.43;1.60;;;;;;;9.73;48.69;102222.09;6147024;28;20234;-75
2023/04/20 01:36:12;;;;;;;1.90;1.20;;;;;;;9.64;49.43;102216.78;6155578;28;20233;-74
2023/04/20 01:39:35;;;;;;;5.20;2.07;;;;;;;9.56;51.79;102210.34;6153331;28;20306;-75
2023/04/20 01:42:55;;;;;;;1.47;1.37;;;;;;;9.49;52.44;102221.50;6151558;28;20359;-74
2023/04/20 01:46:16;;;;;;;3.50;1.47;;;;;;;9.50;52.76;102215.28;6154117;28;20611;-74
2023/04/20 01:49:37;;;;;;;2.93;1.67;;;;;;;9.44;52.85;102203.47;6131614;28;20234;-75
2023/04/20 01:52:58;;;;;;;3.77;1.50;;;;;;;9.49;52.50;102209.16;6146762;28;20271;-75
2023/04/20 01:56:20;;;;;;;1.93;1.20;;;;;;;9.45;52.53;102194.59;6157718;28;20592;-75
2023/04/20 01:59:41;;;;;;;1.70;1.50;;;;;;;9.51;51.58;102196.72;6150888;28;20821;-75
2023/04/20 02:03:01;;;;;;;1.83;1.30;;;;;;;9.38;52.43;102200.50;6158677;28;20238;-74
2023/04/20 02:06:22;;;;;;;4.50;2.73;;;;;;;9.29;52.92;102193.34;6154920;28;20313;-74
2023/04/20 02:09:43;;;;;;;2.37;1.43;;;;;;;9.20;53.12;102190.53;6163591;28;20231;-74
2023/04/20 02:13:05;;;;;;;2.13;1.27;;;;;;;9.26;53.40;102192.63;6139196;28;20233;-75
2023/04/20 02:16:28;;;;;;;2.70;1.43;;;;;;;9.35;53.05;102185.78;6146820;28;20238;-74
2023/04/20 02:19:49;;;;;;;3.50;1.23;;;;;;;9.27;52.87;102164.50;6146516;28;20238;-74
2023/04/20 02:23:10;;;;;;;2.50;1.57;;;;;;;9.25;53.09;102169.91;6149062;28;20221;-74
2023/04/20 02:26:30;;;;;;;3.53;2.10;;;;;;;9.26;53.09;102160.22;6148508;28;20223;-75
2023/04/20 02:29:52;;;;;;;1.50;1.40;;;;;;;9.20;52.97;102158.91;6155096;28;20572;-74
2023/04/20 02:33:13;;;;;;;2.27;2.07;;;;;;;9.13;53.46;102155.09;6145968;28;20239;-75
2023/04/20 02:36:34;;;;;;;2.23;1.10;;;;;;;9.15;53.72;102166.34;6149544;28;20226;-74
2023/04/20 02:39:55;;;;;;;2.27;1.80;;;;;;;9.12;54.10;102142.91;6148262;28;20234;-74
2023/04/20 02:43:16;;;;;;;2.53;2.10;;;;;;;9.17;53.82;102148.63;6156175;28;20644;-74
2023/04/20 02:46:39;;;;;;;1.50;1.40;;;;;;;9.14;54.08;102155.94;6149280;28;20226;-73
2023/04/20 02:50:02;;;;;;;3.47;1.60;;;;;;;9.02;54.48;102149.06;6141894;28;20526;-73
2023/04/20 02:53:24;;;;;;;4.33;1.93;;;;;;;9.05;54.86;102143.53;6163471;28;20253;-74
2023/04/20 02:57:02;;;;;;;2.37;1.10;;;;;;;9.09;54.93;102135.25;6142542;28;20341;-74
2023/04/20 03:00:23;;;;;;;1.60;1.50;;;;;;;9.10;55.23;102150.09;6141514;28;20799;-74
2023/04/20 03:03:56;;;;;;;4.33;2.13;;;;;;;8.94;55.08;102147.06;6143824;28;20229;-74
2023/04/20 03:07:17;;;;;;;2.23;1.53;;;;;;;9.01;55.65;102148.22;6148076;28;20242;-73
2023/04/20 03:10:39;;;;;;;2.20;1.80;;;;;;;8.97;55.82;102152.06;6158623;28;20234;-73
2023/04/20 03:14:08;;;;;;;4.10;1.90;;;;;;;8.99;56.06;102151.94;6151989;28;20231;-74
2023/04/20 03:17:29;;;;;;;2.53;1.80;;;;;;;8.99;56.23;102151.94;6137191;28;20233;-74
2023/04/20 03:20:52;;;;;;;5.87;2.53;;;;;;;8.98;57.29;102145.00;6147306;28;20596;-74
2023/04/20 03:24:12;;;;;;;2.67;1.70;;;;;;;9.06;57.31;102153.09;6145942;28;20364;-74
2023/04/20 03:27:34;;;;;;;1.47;1.33;;;;;;;9.11;58.04;102151.75;6147935;28;20234;-74
2023/04/20 03:31:01;;;;;;;3.50;2.17;;;;;;;8.95;58.05;102154.00;6160896;28;20253;-74
2023/04/20 03:34:25;;;;;;;2.07;1.27;;;;;;;9.02;58.83;102144.63;6146840;28;20762;-74
2023/04/20 03:37:49;;;;;;;3.33;2.20;;;;;;;8.95;59.83;102148.72;6153683;28;20276;-73
2023/04/20 03:41:10;;;;;;;4.00;2.23;;;;;;;8.78;61.57;102159.81;6148545;28;20242;-74
2023/04/20 03:44:33;;;;;;;1.47;1.37;;;;;;;8.84;61.55;102165.38;6148208;28;20652;-73
2023/04/20 03:47:55;;;;;;;1.97;1.83;;;;;;;8.81;62.86;102164.81;6125010;28;20230;-74
2023/04/20 03:51:18;;;;;;;3.13;1.83;;;;;;;8.72;63.99;102166.41;6146444;28;20226;-73
2023/04/20 03:54:43;;;;;;;2.33;1.73;;;;;;;8.73;65.34;102160.19;6130769;28;20230;-73
2023/04/20 03:58:07;;;;;;;2.30;2.10;;;;;;;8.65;66.17;102159.94;6146737;28;20229;-73
2023/04/20 04:01:41;;;;;;;3.80;3.00;;;;;;;8.64;67.32;102149.53;6149564;28;20551;-72
2023/04/20 04:05:02;;;;;;;3.33;1.90;;;;;;;8.63;67.02;102151.34;6152443;28;20234;-72
2023/04/20 04:08:23;;;;;;;2.80;2.60;;;;;;;8.58;67.21;102140.38;6159145;28;20241;-73
2023/04/20 04:11:45;;;;;;;6.13;3.90;;;;;;;8.61;66.12;102145.34;6136845;28;20234;-74
2023/04/20 04:15:13;;;;;;;5.27;4.53;;;;;;;8.55;66.86;102151.13;6157242;28;20227;-72
2023/04/20 04:18:43;;;;;;;3.00;2.37;;;;;;;8.59;67.80;102142.00;6146670;28;20473;-73
2023/04/20 04:22:04;;;;;;;2.60;2.40;;;;;;;8.65;67.53;102143.31;6145062;28;21391;-73
2023/04/20 04:25:30;;;;;;;8.10;2.23;;;;;;;8.59;68.13;102149.91;6160090;28;20544;-73
2023/04/20 04:28:52;;;;;;;3.87;2.10;;;;;;;8.62;68.36;102157.56;6152892;28;20233;-73
2023/04/20 04:32:15;;;;;;;1.90;1.80;;;;;;;8.64;67.65;102166.16;6143235;28;20884;-72
2023/04/20 04:35:39;;;;;;;5.27;1.90;;;;;;;8.61;68.13;102169.03;6155141;28;20235;-72
2023/04/20 04:39:00;;;;;;;3.63;2.43;;;;;;;8.55;68.40;102175.66;6138204;28;20265;-73
2023/04/20 04:42:23;;;;;;;3.40;1.57;;;;;;;8.45;69.61;102166.81;6146605;28;20245;-74
2023/04/20 04:45:45;;;;;;;7.03;3.23;;;;;;;8.48;69.97;102174.47;6161563;28;20238;-73
2023/04/20 04:49:06;;;;;;;2.13;1.93;;;;;;;8.43;69.96;102168.72;6151133;28;20230;-74
2023/04/20 04:52:30;;;;;;;5.33;2.57;;;;;;;8.35;71.06;102171.16;6140977;28;20618;-73
2023/04/20 04:55:50;;;;;;;6.10;2.57;;;;;;;8.33;70.74;102173.06;6163702;28;20231;-73
2023/04/20 04:59:11;;;;;;;3.07;1.67;;;;;;;8.42;70.68;102174.94;6153461;28;20230;-74
2023/04/20 05:02:33;;;;;;;3.33;2.70;;;;;;;8.44;71.02;102173.03;6138492;28;20261;-73
2023/04/20 05:05:55;;;;;;;2.20;2.00;;;;;;;8.46;70.80;102173.75;6156209;28;20250;-72
2023/04/20 05:09:15;;;;;;;2.77;2.57;;;;;;;8.45;71.17;102160.72;6151153;28;20517;-73
2023/04/20 05:12:36;;;;;;;8.57;2.73;;;;;;;8.50;70.26;102175.19;6150053;28;20300;-73
2023/04/20 05:15:57;;;;;;;2.03;1.77;;;;;;;8.50;70.90;102167.28;6161929;28;20230;-73
2023/04/20 05:19:22;;;;;;;2.73;2.53;;;;;;;8.53;71.00;102177.56;6139165;28;20480;-75
2023/04/20 05:22:43;;;;;;;3.07;2.07;;;;;;;8.55;71.58;102182.72;6137646;28;20550;-74
2023/04/20 05:26:05;;;;;;;7.60;3.13;;;;;;;8.57;70.98;102179.00;6158685;28;20509;-72
2023/04/20 05:29:26;;;;;;;4.30;2.90;;;;;;;8.43;72.18;102184.50;6157376;28;20249;-73
2023/04/20 05:32:47;;;;;;;3.93;2.50;;;;;;;8.38;72.02;102185.81;6143568;28;20682;-74
2023/04/20 05:36:10;;;;;;;7.43;2.60;;;;;;;8.43;72.32;102181.03;6140593;28;20246;-73
2023/04/20 05:39:31;;;;;;;4.00;2.30;;;;;;;8.45;73.13;102181.75;6153140;28;20630;-75
2023/04/20 05:42:51;;;;;;;5.67;2.70;;;;;;;8.48;72.35;102179.72;6140773;28;20486;-73
2023/04/20 05:46:12;;;;;;;5.23;3.57;;;;;;;8.43;73.15;102179.25;6151521;28;20231;-67
2023/04/20 05:49:33;;;;;;;2.90;2.63;;;;;;;8.49;73.16;102181.41;6137783;28;20238;-72
2023/04/20 05:53:09;;;;;;;2.43;1.93;;;;;;;8.46;73.27;102179.00;6142173;28;20623;-71
2023/04/20 05:56:29;;;;;;;3.93;2.73;;;;;;;8.50;72.51;102198.88;6150916;28;20230;-72
2023/04/20 05:59:51;;;;;;;4.23;3.47;;;;;;;8.43;73.07;102189.78;6136741;28;20218;-72
2023/04/20 06:03:11;;;;;;;2.70;2.50;;;;;;;8.43;73.93;102188.94;6132565;28;20250;-74
2023/04/20 06:06:32;;;;;;;4.50;3.03;;;;;;;8.55;73.07;102198.50;6146934;28;20272;-73
2023/04/20 06:09:54;;;;;;;3.17;2.83;;;;;;;8.52;73.25;102202.22;6143954;28;20278;-70
2023/04/20 06:13:15;;;;;;;3.70;3.27;;;;;;;8.56;73.41;102190.50;6142299;28;20670;-72
2023/04/20 06:16:36;;;;;;;5.33;4.13;;;;;;;8.64;73.39;102191.66;6162201;28;20543;-72
2023/04/20 06:19:57;;;;;;;6.00;3.60;;;;;;;8.69;72.84;102194.75;6148641;28;20317;-71
2023/04/20 06:23:19;;;;;;;2.57;2.37;;;;;;;8.65;73.21;102181.00;6149368;28;20499;-71
2023/04/20 06:26:41;;;;;;;4.10;3.20;;;;;;;8.65;73.65;102186.25;6143875;28;20575;-70
2023/04/20 06:30:02;;;;;;;4.83;3.60;;;;;;;8.72;72.54;102181.34;6151978;28;21350;-74
2023/04/20 06:33:26;;;;;;;5.87;3.80;;;;;;;8.65;73.38;102182.78;6132911;28;21718;-71
2023/04/20 06:36:47;;;;;;;2.20;2.00;;;;;;;8.62;73.25;102175.16;6133556;28;20231;-73
2023/04/20 06:40:09;;;;;;;7.10;2.70;;;;;;;8.65;73.06;102181.00;6161191;28;20230;-73
2023/04/20 06:43:31;;;;;;;4.73;3.33;;;;;;;8.74;74.00;102179.44;6159474;28;20238;-72
2023/04/20 06:46:51;;;;;;;5.87;2.70;;;;;;;8.80;72.77;102179.78;6141382;28;20648;-70
2023/04/20 06:50:12;;;;;;;2.83;2.63;;;;;;;8.76;73.58;102195.94;6162023;28;20226;-74
2023/04/20 06:53:33;;;;;;;3.50;2.47;;;;;;;8.80;73.42;102190.31;6160235;28;20734;-72
2023/04/20 06:56:54;;;;;;;3.23;2.30;;;;;;;8.73;73.43;102198.81;6146579;28;20241;-72
2023/04/20 07:00:18;;;;;;;3.10;2.77;;;;;;;8.73;74.19;102204.94;6159975;28;20317;-71
2023/04/20 07:03:39;;;;;;;4.60;1.93;;;;;;;8.74;74.29;102209.22;6158967;28;20238;-72
2023/04/20 07:07:00;;;;;;;8.67;3.90;;;;;;;8.92;74.24;102191.09;6142868;28;24963;-73
2023/04/20 07:10:21;;;;;;;3.53;2.90;;;;;;;8.86;73.77;102200.34;6169446;28;20627;-73
2023/04/20 07:13:42;;;;;;;3.83;2.43;;;;;;;8.82;74.53;102211.22;6154316;28;20231;-71
2023/04/20 07:17:04;;;;;;;6.73;4.10;;;;;;;8.79;73.94;102217.59;6147181;28;20699;-72
2023/04/20 07:20:25;;;;;;;4.43;2.47;;;;;;;8.70;74.18;102213.06;6158087;28;20243;-73
2023/04/20 07:23:47;;;;;;;7.43;2.70;;;;;;;8.71;74.78;102216.53;6157004;28;20635;-71
2023/04/20 07:27:07;;;;;;;3.50;2.63;;;;;;;8.57;75.27;102215.00;6151357;28;20227;-71
2023/04/20 07:30:30;;;;;;;2.70;2.47;;;;;;;8.53;74.69;102211.78;6163972;28;20237;-72
2023/04/20 07:33:52;;;;;;;2.97;2.70;;;;;;;8.60;74.91;102213.91;6164810;28;20225;-71
2023/04/20 07:37:13;;;;;;;5.67;2.90;;;;;;;8.54;75.24;102216.09;6143544;28;21122;-70
2023/04/20 07:40:34;;;;;;;3.03;2.80;;;;;;;8.56;74.88;102222.06;6154050;28;20317;-71
2023/04/20 07:43:55;;;;;;;3.90;2.50;;;;;;;8.62;75.67;102218.09;6162551;28;20238;-75
2023/04/20 07:47:16;;;;;;;8.77;5.03;;;;;;;8.71;75.53;102220.00;6148678;28;20241;-73
2023/04/20 07:50:39;;;;;;;2.77;2.53;;;;;;;8.85;75.46;102229.41;6162686;28;20234;-76
2023/04/20 07:54:00;;;;;;;7.70;2.97;;;;;;;8.88;75.05;102231.81;6161168;28;20237;-71
2023/04/20 07:57:21;;;;;;;4.10;2.43;;;;;;;8.78;75.55;102225.63;6153924;28;20603;-73
2023/04/20 08:00:42;;;;;;;3.60;2.80;;;;;;;8.96;75.14;102225.94;6161593;28;20235;-71
2023/04/20 08:04:03;;;;;;;2.67;2.33;;;;;;;8.87;75.15;102236.22;6164340;28;20642;-70
2023/04/20 08:07:25;;;;;;;7.03;2.70;;;;;;;8.77;75.48;102251.13;6148499;28;20242;-70
2023/04/20 08:10:46;;;;;;;4.53;3.13;;;;;;;8.71;76.20;102238.44;6160214;28;20234;-70
2023/04/20 08:14:07;;;;;;;4.50;2.60;;;;;;;8.58;76.33;102237.75;6168465;28;20246;-70
2023/04/20 08:17:28;;;;;;;6.87;2.93;;;;;;;8.66;76.71;102245.00;6148792;28;20230;-69
2023/04/20 08:20:50;;;;;;;4.63;3.23;;;;;;;8.70;77.17;102251.72;6168011;28;20436;-70
2023/04/20 08:24:12;;;;;;;9.80;7.03;;;;;;;8.69;77.43;102260.56;6148086;28;20234;-71
2023/04/20 08:27:33;;;;;;;14.37;4.80;;;;;;;8.68;76.09;102253.63;6157358;28;20238;-70
2023/04/20 08:30:56;;;;;;;4.10;2.57;;;;;;;8.63;77.36;102261.03;6158275;28;20231;-72
2023/04/20 08:34:17;;;;;;;4.10;2.67;;;;;;;8.66;77.14;102252.91;6166264;28;20718;-71
2023/04/20 08:37:38;;;;;;;6.30;3.43;;;;;;;8.64;77.57;102258.28;6152690;28;20230;-71
2023/04/20 08:41:00;;;;;;;3.83;3.43;;;;;;;8.78;77.29;102244.88;6162725;28;20619;-72
2023/04/20 08:44:21;;;;;;;3.23;2.93;;;;;;;8.94;76.55;102246.28;6161397;28;20235;-73
2023/04/20 08:47:43;;;;;;;3.03;2.67;;;;;;;9.08;76.27;102241.56;6155189;28;21843;-70
2023/04/20 08:51:04;;;;;;;5.20;2.90;;;;;;;9.24;75.56;102246.44;6155443;28;20226;-69
2023/04/20 08:54:25;;;;;;;4.23;3.77;;;;;;;9.28;75.42;102247.84;6149786;28;20238;-72
2023/04/20 08:57:49;;;;;;;3.63;2.87;;;;;;;9.49;75.06;102238.16;6164072;28;20230;-72
2023/04/20 09:01:10;;;;;;;4.70;2.87;;;;;;;9.55;74.51;102229.75;6163045;28;20333;-71
2023/04/20 09:04:31;;;;;;;4.07;3.00;;;;;;;9.67;74.42;102237.63;6169489;28;21158;-72
2023/04/20 09:07:52;;;;;;;5.83;4.33;;;;;;;9.88;74.16;102241.94;6176914;28;20368;-73
2023/04/20 09:11:23;;;;;;;4.63;2.77;;;;;;;9.90;73.87;102258.47;6167492;28;20227;-72
2023/04/20 09:14:47;;;;;;;3.97;2.20;;;;;;;9.67;74.40;102259.53;6146699;28;20239;-72
2023/04/20 09:18:13;;;;;;;5.47;2.37;;;;;;;9.51;75.69;102253.84;6157884;28;20499;-73
2023/04/20 09:21:35;;;;;;;5.47;2.80;;;;;;;9.69;75.69;102254.16;6150601;28;20226;-72
2023/04/20 09:24:56;;;;;;;7.90;2.70;;;;;;;9.94;75.13;102257.22;6153010;28;20317;-72
2023/04/20 09:28:17;;;;;;;3.57;3.03;;;;;;;9.91;74.61;102269.84;6147308;28;20230;-71
2023/04/20 09:31:39;;;;;;;3.57;3.27;;;;;;;9.63;75.15;102266.03;6152658;28;20246;-73
2023/04/20 09:35:00;;;;;;;5.20;2.83;;;;;;;9.35;76.07;102279.81;6151527;28;20331;-72
2023/04/20 09:38:26;;;;;;;6.03;3.33;;;;;;;9.30;76.58;102287.25;6147310;28;20223;-73
2023/04/20 09:41:49;;;;;;;4.50;2.90;;;;;;;9.30;76.72;102272.25;6135254;28;20585;-71
2023/04/20 09:45:13;;;;;;;3.73;3.20;;;;;;;9.45;76.45;102270.19;6150059;28;20223;-72
2023/04/20 09:48:36;;;;;;;4.67;3.20;;;;;;;9.60;76.70;102259.22;6155680;28;20238;-73
2023/04/20 09:52:01;;;;;;;5.30;3.57;;;;;;;10.13;74.22;102242.47;6150794;28;20242;-72
2023/04/20 09:55:25;;;;;;;4.47;3.63;;;;;;;10.53;72.36;102242.53;6167437;28;20243;-74
2023/04/20 09:58:47;;;;;;;4.13;2.80;;;;;;;10.98;71.03;102240.28;6168371;28;20772;-73
2023/04/20 10:02:08;;;;;;;3.43;2.90;;;;;;;12.11;67.72;102232.56;6152724;28;20245;-73
2023/04/20 10:05:35;;;;;;;2.43;2.23;;;;;;;12.82;65.59;102241.56;6168197;28;20321;-73
2023/04/20 10:08:57;;;;;;;6.37;4.10;;;;;;;12.95;65.01;102249.16;6169072;28;20242;-73
2023/04/20 10:12:19;;;;;;;8.53;4.23;;;;;;;12.45;65.59;102262.78;6155307;28;20237;-73
2023/04/20 10:15:42;;;;;;;5.77;3.57;;;;;;;11.68;68.29;102260.34;6128653;28;20230;-72
2023/04/20 10:19:04;;;;;;;6.33;3.87;;;;;;;11.27;69.21;102261.47;6169209;28;20230;-73
2023/04/20 10:22:32;;;;;;;5.20;3.73;;;;;;;11.19;69.83;102266.59;6161465;28;20237;-73
2023/04/20 10:25:57;;;;;;;7.23;2.73;;;;;;;11.34;69.65;102259.91;6170138;28;20238;-73
2023/04/20 10:29:23;;;;;;;4.03;3.30;;;;;;;11.33;68.92;102255.59;6170837;28;20230;-65
2023/04/20 10:32:44;;;;;;;4.13;3.43;;;;;;;11.39;70.72;102263.00;6154313;28;20221;-66
2023/04/20 10:36:05;;;;;;;3.43;2.50;;;;;;;11.73;68.81;102263.41;6147478;28;20234;-66
2023/04/20 10:39:31;;;;;;;4.13;3.17;;;;;;;11.53;70.14;102272.31;6157968;28;20234;-66
2023/04/20 10:42:52;;;;;;;4.30;2.33;;;;;;;11.44;68.79;102260.78;6148469;28;20638;-67
2023/04/20 10:46:17;;;;;;;4.73;3.80;;;;;;;11.40;69.61;102258.53;6136615;28;20254;-66
2023/04/20 10:49:38;;;;;;;6.77;3.63;;;;;;;11.52;68.60;102268.81;6157324;28;20222;-67
2023/04/20 10:52:59;;;;;;;3.60;2.47;;;;;;;11.99;67.09;102251.25;6153025;28;20238;-66
2023/04/20 10:56:21;;;;;;;2.50;2.30;;;;;;;12.60;66.08;102250.75;6149012;28;20235;-66
2023/04/20 10:59:42;;;;;;;2.93;2.60;;;;;;;12.84;64.33;102247.56;6144101;28;20516;-66
2023/04/20 11:03:02;;;;;;;3.83;3.53;;;;;;;12.77;63.60;102256.25;6160032;28;20226;-66
2023/04/20 11:06:23;;;;;;;4.23;3.53;;;;;;;12.25;64.89;102256.75;6160794;28;20238;-66
2023/04/20 11:09:45;;;;;;;5.00;3.03;;;;;;;11.98;67.11;102252.22;6142399;28;20241;-66
2023/04/20 11:13:07;;;;;;;3.47;2.90;;;;;;;11.92;66.62;102244.88;6158709;28;20229;-64
2023/04/20 11:16:28;;;;;;;3.20;2.90;;;;;;;11.86;67.58;102252.53;6163327;28;20245;-66
2023/04/20 11:19:49;;;;;;;3.40;2.53;;;;;;;11.58;67.55;102248.91;6129289;28;20234;-67
2023/04/20 11:23:10;;;;;;;3.60;2.30;;;;;;;11.76;67.04;102244.59;6155161;28;20329;-64
2023/04/20 11:26:36;;;;;;;3.57;3.13;;;;;;;11.80;66.32;102248.66;6168990;28;20242;-66
2023/04/20 11:29:58;;;;;;;5.47;3.10;;;;;;;11.91;66.37;102247.66;6147131;28;20243;-67
2023/04/20 11:33:27;;;;;;;6.77;4.10;;;;;;;11.81;66.61;102250.31;6148960;28;21576;-67
2023/04/20 11:36:49;;;;;;;4.37;3.43;;;;;;;11.58;67.50;102255.03;6137032;28;20233;-67
2023/04/20 11:40:10;;;;;;;3.03;2.73;;;;;;;10.70;69.45;102252.44;6160878;28;20254;-68
2023/04/20 11:43:32;;;;;;;3.20;2.90;;;;;;;10.88;69.81;102249.97;6149144;28;20246;-68
2023/04/20 11:46:56;;;;;;;4.07;3.60;;;;;;;11.19;69.19;102246.28;6136430;28;20359;-67
2023/04/20 11:50:17;;;;;;;3.87;3.57;;;;;;;11.17;68.22;102245.59;6151331;28;20261;-71
2023/04/20 11:53:38;;;;;;;3.03;2.50;;;;;;;11.18;68.35;102241.97;6146505;28;20234;-73
2023/04/20 11:56:59;;;;;;;3.50;3.20;;;;;;;11.01;69.54;102252.38;6140769;28;20234;-74
2023/04/20 12:00:21;;;;;;;4.17;3.57;;;;;;;10.97;69.64;102243.91;6162962;28;20416;-72
2023/04/20 12:03:43;;;;;;;5.13;3.93;;;;;;;10.79;70.43;102256.94;6145275;28;20246;-73
2023/04/20 12:07:04;;;;;;;4.60;4.20;;;;;;;10.68;71.48;102253.56;6150692;28;20229;-73
2023/04/20 12:10:25;;;;;;;2.67;2.47;;;;;;;10.58;72.11;102249.09;6157896;28;20234;-72
2023/04/20 12:13:46;;;;;;;8.60;3.73;;;;;;;10.47;73.28;102253.63;6146249;28;20233;-71
2023/04/20 12:17:07;;;;;;;7.03;3.73;;;;;;;10.45;73.73;102253.75;6146120;28;20257;-73
2023/04/20 12:20:31;;;;;;;6.33;5.83;;;;;;;10.44;74.42;102253.88;6156655;28;20568;-72
2023/04/20 12:23:52;;;;;;;6.07;4.63;;;;;;;10.52;74.50;102249.63;6164066;28;20265;-71
2023/04/20 12:27:13;;;;;;;6.27;4.23;;;;;;;10.44;75.04;102264.44;6144884;28;20314;-72
2023/04/20 12:30:35;;;;;;;3.97;2.57;;;;;;;10.30;75.54;102265.66;6170165;28;20325;-71
2023/04/20 12:33:56;;;;;;;5.67;4.37;;;;;;;10.48;75.24;102271.13;6164610;28;20540;-70
2023/04/20 12:37:19;;;;;;;4.93;4.47;;;;;;;10.61;74.78;102271.75;6157551;28;20242;-70
2023/04/20 12:40:39;;;;;;;5.77;4.53;;;;;;;10.48;75.48;102266.69;6175178;28;20594;-72
2023/04/20 12:44:00;;;;;;;5.60;3.93;;;;;;;10.59;74.59;102274.53;6166815;28;20280;-74
2023/04/20 12:47:21;;;;;;;7.30;5.47;;;;;;;10.67;74.38;102263.28;6150137;28;20230;-74
2023/04/20 12:50:42;;;;;;;7.07;5.03;;;;;;;11.12;73.13;102249.59;6167246;28;20239;-70
2023/04/20 12:54:04;;;;;;;5.13;4.17;;;;;;;11.53;72.19;102243.22;6156047;28;20321;-72
2023/04/20 12:57:25;;;;;;;4.13;3.80;;;;;;;12.54;68.49;102245.22;6153228;28;20675;-72
2023/04/20 13:00:46;;;;;;;7.00;4.57;;;;;;;12.35;67.05;102251.44;6169072;28;20544;-72
2023/04/20 13:04:07;;;;;;;5.27;4.77;;;;;;;12.42;66.97;102244.56;6159458;28;20352;-72
2023/04/20 13:07:28;;;;;;;7.07;4.53;;;;;;;12.29;67.50;102244.06;6147099;28;20234;-70
2023/04/20 13:10:51;;;;;;;11.17;4.23;;;;;;;12.36;67.98;102228.44;6162341;28;20258;-72
2023/04/20 13:14:12;;;;;;;4.73;3.53;;;;;;;12.41;67.29;102234.97;6155943;28;20249;-70
2023/04/20 13:17:35;;;;;;;10.73;5.33;;;;;;;12.25;67.41;102230.28;6161344;28;20241;-68
2023/04/20 13:20:56;;;;;;;7.80;3.83;;;;;;;12.27;67.95;102232.78;6159229;28;20235;-74
2023/04/20 13:24:17;;;;;;;6.47;4.20;;;;;;;12.26;68.30;102229.28;6150396;28;20518;-73
2023/04/20 13:27:39;;;;;;;6.47;4.97;;;;;;;12.24;67.72;102227.78;6153587;28;20632;-74
2023/04/20 13:31:00;;;;;;;8.80;4.90;;;;;;;12.17;68.24;102221.41;6162926;28;20221;-72
2023/04/20 13:34:21;;;;;;;6.93;5.87;;;;;;;11.88;69.00;102211.75;6153898;28;20227;-72
2023/04/20 13:37:45;;;;;;;6.83;5.20;;;;;;;11.69;69.41;102210.91;6149433;28;20230;-72
2023/04/20 13:41:06;;;;;;;7.03;4.10;;;;;;;11.44;70.29;102205.25;6166531;28;20315;-72
2023/04/20 13:44:28;;;;;;;8.40;6.27;;;;;;;11.50;70.61;102206.50;6157112;28;20330;-71
2023/04/20 13:47:49;;;;;;;9.97;5.50;;;;;;;11.59;71.00;102198.53;6150008;28;20230;-71
2023/04/20 13:51:10;;;;;;;7.33;5.90;;;;;;;11.70;70.15;102186.13;6162001;28;20227;-72
2023/04/20 13:54:30;;;;;;;5.87;4.87;;;;;;;11.75;70.12;102182.06;6160043;28;20223;-71
2023/04/20 13:57:51;;;;;;;6.80;4.93;;;;;;;11.70;69.95;102175.56;6156294;28;20230;-71
2023/04/20 14:01:15;;;;;;;16.13;5.67;;;;;;;11.91;69.74;102171.75;6162264;28;21489;-73
2023/04/20 14:04:39;;;;;;;5.33;4.43;;;;;;;12.11;68.35;102174.34;6156534;28;20227;-72
2023/04/20 14:08:00;;;;;;;8.33;5.10;;;;;;;12.10;68.14;102162.06;6152200;28;20560;-73
2023/04/20 14:11:21;;;;;;;6.00;4.53;;;;;;;11.95;67.75;102164.38;6158541;28;20230;-71
2023/04/20 14:14:42;;;;;;;4.90;3.87;;;;;;;11.86;69.01;102159.94;6150074;28;20226;-72
2023/04/20 14:18:05;;;;;;;7.67;4.97;;;;;;;11.96;68.91;102168.69;6157264;28;20222;-71
2023/04/20 14:21:26;;;;;;;12.20;5.00;;;;;;;11.97;69.50;102170.38;6154316;28;20242;-73
2023/04/20 14:24:47;;;;;;;12.13;5.23;;;;;;;11.99;68.73;102166.56;6154283;28;20572;-73
2023/04/20 14:28:08;;;;;;;10.90;5.77;;;;;;;12.16;68.56;102164.97;6155650;28;20603;-71
2023/04/20 14:31:30;;;;;;;6.37;4.40;;;;;;;12.19;68.70;102155.91;6163632;28;20238;-73
2023/04/20 14:34:52;;;;;;;4.57;4.17;;;;;;;12.37;68.18;102148.00;6153578;28;20226;-72
2023/04/20 14:38:13;;;;;;;9.80;6.20;;;;;;;12.43;67.65;102152.69;6158712;28;20218;-74
2023/04/20 14:41:34;;;;;;;6.27;4.87;;;;;;;12.60;66.80;102146.63;6152120;28;20226;-76
2023/04/20 14:44:57;;;;;;;5.57;5.07;;;;;;;12.77;66.41;102144.97;6150946;28;20247;-76
2023/04/20 14:48:18;;;;;;;5.07;4.13;;;;;;;12.87;65.93;102132.47;6148731;28;20226;-77
2023/04/20 14:51:40;;;;;;;12.23;5.53;;;;;;;12.99;65.97;102124.13;6142563;28;20727;-72
2023/04/20 14:55:02;;;;;;;6.23;4.60;;;;;;;12.92;66.08;102124.88;6152910;28;20233;-75
2023/04/20 14:58:23;;;;;;;10.43;6.33;;;;;;;13.01;65.77;102116.03;6157587;28;20242;-75
2023/04/20 15:01:46;;;;;;;9.33;5.67;;;;;;;13.29;65.18;102111.47;6143994;28;20314;-75
2023/04/20 15:05:08;;;;;;;9.53;5.43;;;;;;;13.57;64.34;102114.78;6158075;28;20227;-77
2023/04/20 15:08:30;;;;;;;13.80;4.73;;;;;;;13.76;63.35;102103.13;6160438;28;20843;-77
2023/04/20 15:11:51;;;;;;;9.37;5.83;;;;;;;13.95;62.55;102097.59;6154212;28;20253;-75
2023/04/20 15:15:14;;;;;;;6.53;5.90;;;;;;;14.10;62.75;102098.63;6168786;28;20269;-77
2023/04/20 15:18:35;;;;;;;8.13;5.13;;;;;;;14.24;62.26;102095.34;6162733;28;20317;-78
2023/04/20 15:21:55;;;;;;;9.97;5.40;;;;;;;14.39;61.56;102084.94;6137866;28;20246;-79
2023/04/20 15:25:17;;;;;;;10.70;4.47;;;;;;;14.59;61.85;102088.16;6160259;28;20234;-79
2023/04/20 15:28:38;;;;;;;7.90;4.93;;;;;;;14.65;60.31;102077.69;6161471;28;20509;-74
2023/04/20 15:32:00;;;;;;;5.40;4.90;;;;;;;14.79;60.16;102070.88;6157972;28;20329;-75
2023/04/20 15:35:21;;;;;;;6.77;4.47;;;;;;;15.06;60.35;102061.75;6177426;28;20234;-75
2023/04/20 15:38:43;;;;;;;12.13;4.43;;;;;;;14.97;59.93;102055.59;6157475;28;20666;-77
2023/04/20 15:42:06;;;;;;;7.93;5.20;;;;;;;15.04;60.30;102055.75;6157692;28;20230;-77
2023/04/20 15:45:28;;;;;;;7.60;6.90;;;;;;;15.05;60.07;102052.09;6174651;28;20223;-76